Columbus, Ohio
Traffic Map
Current Weather Conditions
Columbus, Ohio
Overcast Moderate Rain
Overcast
77°
Feels Like: 78°
Wind Chill: 77° Ceiling: 3500
Heat Index: 78° Visibility: 3mi
Dew Point: 72° Wind: 8mph
Humidity: 84% Direction: 340° (NNW)
Pressure: 29.78in Gusts: 20mph
Raw Report DataKCMH 202056Z 34007G17KT 3SM R28L/3500VP6000FT RA SCT016 BKN035 OVC065 25/22 A2978 RMK AO2 VIS E 1 RAB48 TSE33 P0013 60009 T02500222 PNO $
Traffic Incident Summary
Active as of:
Severity:
Category:
InformationThere was an issue retrieving the traffic information for this location. Please try a different location or try again shortly.
Advertisements